Time;durP1;ratioP1;P1;durP2;ratioP2;P2;SDS_P1;SDS_P2;PMS_P1;PMS_P2;Temp;Humidity;BMP_temperature;BMP_pressure;BME280_temperature;BME280_humidity;BME280_pressure;Samples;Min_cycle;Max_cycle;Signal;HPM_P1;HPM_P2
2023/04/19 00:01:27;;;;;;;0.90;0.90;;;;;;;;;;6360746;28;20292;-75
2023/04/19 00:04:33;;;;;;;0.97;0.97;;;;;;;;;;6359546;28;20297;-74
2023/04/19 00:07:38;;;;;;;2.63;1.10;;;;;;;;;;6360459;28;20300;-74
2023/04/19 00:10:43;;;;;;;1.10;1.10;;;;;;;;;;6359081;28;20288;-76
2023/04/19 00:13:50;;;;;;;0.93;0.90;;;;;;;;;;6359733;28;20296;-75
2023/04/19 00:16:55;;;;;;;1.23;1.20;;;;;;;;;;6360512;28;20310;-75
2023/04/19 00:20:00;;;;;;;1.43;1.20;;;;;;;;;;6359526;28;20609;-75
2023/04/19 00:23:05;;;;;;;1.00;1.00;;;;;;;;;;6359807;28;20293;-75
2023/04/19 00:26:14;;;;;;;0.90;0.90;;;;;;;;;;6358999;28;20292;-75
2023/04/19 00:29:25;;;;;;;1.43;1.20;;;;;;;;;;6359299;28;20318;-76
2023/04/19 00:32:30;;;;;;;1.53;1.13;;;;;;;;;;6359835;28;20287;-74
2023/04/19 00:35:36;;;;;;;1.70;0.90;;;;;;;;;;6341199;28;20294;-76
2023/04/19 00:38:41;;;;;;;1.00;1.00;;;;;;;;;;6341522;28;20375;-75
2023/04/19 00:41:47;;;;;;;0.90;0.90;;;;;;;;;;6340899;28;20295;-74
2023/04/19 00:44:55;;;;;;;3.50;1.07;;;;;;;;;;6341016;28;20306;-74
2023/04/19 00:48:00;;;;;;;1.17;1.17;;;;;;;;;;6342105;28;20303;-75
2023/04/19 00:51:06;;;;;;;1.43;1.00;;;;;;;;;;6360055;28;20408;-75
2023/04/19 00:54:13;;;;;;;2.63;1.00;;;;;;;;;;6360198;28;20299;-75
2023/04/19 00:57:20;;;;;;;2.90;1.40;;;;;;;;;;6341995;28;20290;-75
2023/04/19 01:00:28;;;;;;;1.70;1.17;;;;;;;;;;6341358;28;20315;-75
2023/04/19 01:03:35;;;;;;;1.00;1.00;;;;;;;;;;6339607;28;20292;-74
2023/04/19 01:06:41;;;;;;;1.23;1.00;;;;;;;;;;6341156;28;20444;-75
2023/04/19 01:09:48;;;;;;;1.40;0.90;;;;;;;;;;6358278;28;20300;-75
2023/04/19 01:12:53;;;;;;;1.20;1.20;;;;;;;;;;6358399;28;20286;-74
2023/04/19 01:16:00;;;;;;;1.30;1.20;;;;;;;;;;6358728;28;20560;-75
2023/04/19 01:19:05;;;;;;;1.30;1.20;;;;;;;;;;6358833;28;20295;-75
2023/04/19 01:22:17;;;;;;;0.90;0.90;;;;;;;;;;6341008;28;20295;-76
2023/04/19 01:25:22;;;;;;;2.17;1.17;;;;;;;;;;6358644;28;20292;-75
2023/04/19 01:28:27;;;;;;;1.00;1.00;;;;;;;;;;6340160;28;20307;-75
2023/04/19 01:31:32;;;;;;;1.07;1.07;;;;;;;;;;6359236;28;20307;-75
2023/04/19 01:34:41;;;;;;;2.13;1.20;;;;;;;;;;6340207;28;20298;-75
2023/04/19 01:37:49;;;;;;;3.80;1.20;;;;;;;;;;6358673;28;20290;-75
2023/04/19 01:40:56;;;;;;;1.10;1.10;;;;;;;;;;6340258;28;20299;-74
2023/04/19 01:44:01;;;;;;;1.23;1.10;;;;;;;;;;6340208;28;20327;-75
2023/04/19 01:47:07;;;;;;;0.90;0.90;;;;;;;;;;6340618;28;20571;-75
2023/04/19 01:50:14;;;;;;;2.63;1.00;;;;;;;;;;6358153;28;20302;-76
2023/04/19 01:53:21;;;;;;;1.10;1.10;;;;;;;;;;6340752;28;20610;-75
2023/04/19 01:56:26;;;;;;;2.13;1.23;;;;;;;;;;6345374;28;20294;-74
2023/04/19 01:59:32;;;;;;;1.07;1.07;;;;;;;;;;6363095;28;20302;-75
2023/04/19 02:02:37;;;;;;;1.13;1.13;;;;;;;;;;6344671;28;20318;-75
2023/04/19 02:05:43;;;;;;;1.10;1.10;;;;;;;;;;6344998;28;20290;-75
2023/04/19 02:08:49;;;;;;;1.20;1.20;;;;;;;;;;6362558;28;20298;-74
2023/04/19 02:11:55;;;;;;;3.00;1.50;;;;;;;;;;6362174;28;20290;-73
2023/04/19 02:15:01;;;;;;;1.10;1.10;;;;;;;;;;6345256;28;20334;-75
2023/04/19 02:18:12;;;;;;;2.63;1.10;;;;;;;;;;6344693;28;20304;-74
2023/04/19 02:21:17;;;;;;;1.10;1.10;;;;;;;;;;6344487;28;20295;-76
2023/04/19 02:24:25;;;;;;;2.60;1.20;;;;;;;;;;6362133;28;20290;-75
2023/04/19 02:27:31;;;;;;;1.90;1.20;;;;;;;;;;6344445;28;20287;-76
2023/04/19 02:30:37;;;;;;;1.10;1.10;;;;;;;;;;6343394;28;20296;-75
2023/04/19 02:33:45;;;;;;;1.30;1.20;;;;;;;;;;6362443;28;20286;-74
2023/04/19 02:36:52;;;;;;;2.07;1.20;;;;;;;;;;6344925;28;20294;-77
2023/04/19 02:39:58;;;;;;;1.20;1.20;;;;;;;;;;6362452;28;20294;-76
2023/04/19 02:43:06;;;;;;;1.13;1.13;;;;;;;;;;6344505;28;20302;-75
2023/04/19 02:46:12;;;;;;;1.67;1.20;;;;;;;;;;6361552;28;20296;-74
2023/04/19 02:49:17;;;;;;;1.10;1.10;;;;;;;;;;6361609;28;20588;-74
2023/04/19 02:52:23;;;;;;;1.87;1.20;;;;;;;;;;6343906;28;20295;-75
2023/04/19 02:55:30;;;;;;;1.10;1.10;;;;;;;;;;6343667;28;20292;-74
2023/04/19 02:58:42;;;;;;;1.10;1.10;;;;;;;;;;6343350;28;20289;-75
2023/04/19 03:01:49;;;;;;;1.17;1.10;;;;;;;;;;6339988;28;20376;-74
2023/04/19 03:04:55;;;;;;;1.23;1.20;;;;;;;;;;6332216;28;20310;-75
2023/04/19 03:08:00;;;;;;;1.43;1.27;;;;;;;;;;6334361;28;20306;-74
2023/04/19 03:11:07;;;;;;;1.40;1.30;;;;;;;;;;6334908;28;20319;-75
2023/04/19 03:14:13;;;;;;;2.20;1.20;;;;;;;;;;6351175;28;20299;-76
2023/04/19 03:17:19;;;;;;;1.30;1.30;;;;;;;;;;6336667;28;20291;-75
2023/04/19 03:20:25;;;;;;;1.27;1.20;;;;;;;;;;6334489;28;20476;-75
2023/04/19 03:23:30;;;;;;;2.53;1.13;;;;;;;;;;6334834;28;20296;-75
2023/04/19 03:26:39;;;;;;;4.53;1.33;;;;;;;;;;6335294;28;20469;-74
2023/04/19 03:29:45;;;;;;;1.40;1.10;;;;;;;;;;6334461;28;20601;-75
2023/04/19 03:32:52;;;;;;;1.30;1.27;;;;;;;;;;6334618;28;20293;-76
2023/04/19 03:35:58;;;;;;;2.77;1.00;;;;;;;;;;6334523;28;20291;-75
2023/04/19 03:39:04;;;;;;;1.20;1.20;;;;;;;;;;6317801;28;20303;-75
2023/04/19 03:42:12;;;;;;;1.10;1.10;;;;;;;;;;6319193;28;20296;-76
2023/04/19 03:45:46;;;;;;;2.80;1.30;;;;;;;;;;6326887;28;20611;-75
2023/04/19 03:48:52;;;;;;;3.17;1.73;;;;;;;;;;6317171;28;20303;-75
2023/04/19 03:51:59;;;;;;;2.20;1.60;;;;;;;;;;6317729;28;20291;-76
2023/04/19 03:55:06;;;;;;;2.33;1.70;;;;;;;;;;6317310;28;20536;-74
2023/04/19 03:58:17;;;;;;;3.07;1.70;;;;;;;;;;6316832;28;20301;-74
2023/04/19 04:01:40;;;;;;;1.70;1.60;;;;;;;;;;6317075;28;20304;-74
2023/04/19 04:04:46;;;;;;;1.93;1.90;;;;;;;;;;6357691;28;20592;-75
2023/04/19 04:07:52;;;;;;;2.70;1.90;;;;;;;;;;6325128;28;20291;-74
2023/04/19 04:10:58;;;;;;;3.30;1.93;;;;;;;;;;6330987;28;20292;-76
2023/04/19 04:14:05;;;;;;;3.53;2.20;;;;;;;;;;6341848;28;20291;-74
2023/04/19 04:17:15;;;;;;;2.20;2.10;;;;;;;;;;6341659;28;20295;-76
2023/04/19 04:20:21;;;;;;;6.43;2.30;;;;;;;;;;6341830;28;20314;-76
2023/04/19 04:23:29;;;;;;;4.30;1.87;;;;;;;;;;6341533;28;20298;-76
2023/04/19 04:26:38;;;;;;;2.23;2.13;;;;;;;;;;6342468;28;20286;-75
2023/04/19 04:30:03;;;;;;;2.20;2.10;;;;;;;;;;6341509;28;20247;-75
2023/04/19 04:33:10;;;;;;;4.87;2.23;;;;;;;;;;6341560;28;20293;-75
2023/04/19 04:36:18;;;;;;;4.60;2.20;;;;;;;;;;6342401;28;20294;-77
2023/04/19 04:39:24;;;;;;;3.73;2.10;;;;;;;;;;6341412;28;20301;-75
2023/04/19 04:42:30;;;;;;;5.50;2.40;;;;;;;;;;6341523;28;20321;-76
2023/04/19 04:45:37;;;;;;;2.30;2.20;;;;;;;;;;6358918;28;20298;-76
2023/04/19 04:48:43;;;;;;;2.93;2.63;;;;;;;;;;6341399;28;20294;-75
2023/04/19 04:51:48;;;;;;;2.10;2.00;;;;;;;;;;6342117;28;20277;-75
2023/04/19 04:54:54;;;;;;;2.93;1.90;;;;;;;;;;6341584;28;20289;-75
2023/04/19 04:58:05;;;;;;;2.50;2.40;;;;;;;;;;6340814;28;20294;-75
2023/04/19 05:01:26;;;;;;;2.07;1.90;;;;;;;;;;6341912;28;20302;-75
2023/04/19 05:04:32;;;;;;;1.93;1.77;;;;;;;;;;6311719;28;20296;-74
2023/04/19 05:07:38;;;;;;;4.50;2.00;;;;;;;;;;6307636;28;20309;-75
2023/04/19 05:10:44;;;;;;;1.70;1.60;;;;;;;;;;6298366;28;20283;-75
2023/04/19 05:13:51;;;;;;;2.60;1.57;;;;;;;;;;6333338;28;20291;-75
2023/04/19 05:16:58;;;;;;;1.40;1.40;;;;;;;;;;6334222;28;20291;-76
2023/04/19 05:20:04;;;;;;;4.53;1.70;;;;;;;;;;6316289;28;20478;-74
2023/04/19 05:23:10;;;;;;;2.50;1.43;;;;;;;;;;6315660;28;20290;-76
2023/04/19 05:26:16;;;;;;;1.33;1.30;;;;;;;;;;6316354;28;20287;-76
2023/04/19 05:29:22;;;;;;;2.97;1.50;;;;;;;;;;6318204;28;20289;-77
2023/04/19 05:32:32;;;;;;;1.47;1.20;;;;;;;;;;6320948;28;20294;-76
2023/04/19 05:35:40;;;;;;;3.67;1.60;;;;;;;;;;6320703;28;20291;-75
2023/04/19 05:38:45;;;;;;;6.30;1.50;;;;;;;;;;6320706;28;20603;-75
2023/04/19 05:41:50;;;;;;;2.57;1.50;;;;;;;;;;6320959;28;20300;-76
2023/04/19 05:44:56;;;;;;;3.10;1.40;;;;;;;;;;6312685;28;20288;-76
2023/04/19 05:48:03;;;;;;;1.47;1.37;;;;;;;;;;6320540;28;20291;-75
2023/04/19 05:51:28;;;;;;;3.70;1.20;;;;;;;;;;6320743;28;20307;-75
2023/04/19 05:55:02;;;;;;;5.17;1.30;;;;;;;;;;6318991;28;20297;-76
2023/04/19 05:58:10;;;;;;;3.60;1.77;;;;;;;;;;6319989;28;20297;-75
2023/04/19 06:01:15;;;;;;;1.50;1.50;;;;;;;;;;6321514;28;20329;-76
2023/04/19 06:04:22;;;;;;;4.20;1.43;;;;;;;;;;6300578;28;20564;-76
2023/04/19 06:07:28;;;;;;;1.80;1.23;;;;;;;;;;6295946;28;20316;-76
2023/04/19 06:10:38;;;;;;;3.50;1.30;;;;;;;;;;6304172;28;20286;-76
2023/04/19 06:14:01;;;;;;;4.10;1.30;;;;;;;;;;6337646;28;20305;-76
2023/04/19 06:17:06;;;;;;;2.67;1.40;;;;;;;;;;6320315;28;20293;-76
2023/04/19 06:20:15;;;;;;;7.80;1.27;;;;;;;;;;6337342;28;20443;-75
2023/04/19 06:23:20;;;;;;;1.30;1.20;;;;;;;;;;6337364;28;20296;-75
2023/04/19 06:26:25;;;;;;;1.37;1.37;;;;;;;;;;6338511;28;20377;-75
2023/04/19 06:29:30;;;;;;;1.90;1.20;;;;;;;;;;6337350;28;20293;-76
2023/04/19 06:32:35;;;;;;;2.73;1.30;;;;;;;;;;6337851;28;20289;-76
2023/04/19 06:35:42;;;;;;;4.43;1.27;;;;;;;;;;6336797;28;20297;-77
2023/04/19 06:38:48;;;;;;;4.00;1.40;;;;;;;;;;6337034;28;20294;-76
2023/04/19 06:41:54;;;;;;;1.30;1.30;;;;;;;;;;6336283;28;20476;-77
2023/04/19 06:44:59;;;;;;;3.70;1.20;;;;;;;;;;6319584;28;20331;-76
2023/04/19 06:48:06;;;;;;;1.52;1.27;;;;;;;;;;6318783;28;20300;-75
2023/04/19 06:51:13;;;;;;;2.83;1.38;;;;;;;;;;6337539;28;20293;-76
2023/04/19 06:54:18;;;;;;;5.28;1.48;;;;;;;;;;6336804;28;20305;-75
2023/04/19 06:57:23;;;;;;;4.03;1.40;;;;;;;;;;6337661;28;20293;-75
2023/04/19 07:00:29;;;;;;;9.68;1.58;;;;;;;;;;6318465;28;20297;-75
2023/04/19 07:03:34;;;;;;;6.70;1.40;;;;;;;;;;6341408;28;20289;-76
2023/04/19 07:06:41;;;;;;;2.95;1.55;;;;;;;;;;6362755;28;20562;-76
2023/04/19 07:09:46;;;;;;;1.42;1.20;;;;;;;;;;6358954;28;20293;-75
2023/04/19 07:12:52;;;;;;;1.60;1.50;;;;;;;;;;6361314;28;20281;-75
2023/04/19 07:15:57;;;;;;;7.65;1.40;;;;;;;;;;6362142;28;20292;-76
2023/04/19 07:19:02;;;;;;;1.02;1.02;;;;;;;;;;6343548;28;20289;-75
2023/04/19 07:22:09;;;;;;;1.30;1.20;;;;;;;;;;6345022;28;20301;-75
2023/04/19 07:25:14;;;;;;;2.25;1.30;;;;;;;;;;6336134;28;20297;-75
2023/04/19 07:28:19;;;;;;;14.55;1.42;;;;;;;;;;6336073;28;20316;-76
2023/04/19 07:31:25;;;;;;;5.03;1.30;;;;;;;;;;6336441;28;20294;-75
2023/04/19 07:34:30;;;;;;;4.35;1.25;;;;;;;;;;6335785;28;20294;-75
2023/04/19 07:37:36;;;;;;;9.68;1.60;;;;;;;;;;6318750;28;20294;-75
2023/04/19 07:40:41;;;;;;;0.98;0.98;;;;;;;;;;6335408;28;20293;-76
2023/04/19 07:43:46;;;;;;;10.43;1.30;;;;;;;;;;6335566;28;20475;-74
2023/04/19 07:46:52;;;;;;;1.48;1.15;;;;;;;;;;6336045;28;20302;-75
2023/04/19 07:49:58;;;;;;;2.70;1.15;;;;;;;;;;6335182;28;20309;-75
2023/04/19 07:53:05;;;;;;;1.08;1.00;;;;;;;;;;6335438;28;20297;-76
2023/04/19 07:56:13;;;;;;;1.90;1.10;;;;;;;;;;6336064;28;20298;-77
2023/04/19 07:59:18;;;;;;;2.30;1.10;;;;;;;;;;6335488;28;20474;-76
2023/04/19 08:02:23;;;;;;;1.17;1.10;;;;;;;;;;6333397;28;20306;-76
2023/04/19 08:05:28;;;;;;;1.10;1.10;;;;;;;;;;6310265;28;20318;-76
2023/04/19 08:08:36;;;;;;;1.23;1.13;;;;;;;;;;6309717;28;20290;-77
2023/04/19 08:11:42;;;;;;;1.38;1.10;;;;;;;;;;6313706;28;20286;-75
2023/04/19 08:14:47;;;;;;;4.97;1.20;;;;;;;;;;6291532;28;20302;-76
2023/04/19 08:18:13;;;;;;;1.65;1.10;;;;;;;;;;6292566;28;20313;-75
2023/04/19 08:21:18;;;;;;;3.00;1.20;;;;;;;;;;6310212;28;20474;-76
2023/04/19 08:24:31;;;;;;;3.22;1.40;;;;;;;;;;6309506;28;20306;-75
2023/04/19 08:27:37;;;;;;;1.25;1.25;;;;;;;;;;6309140;28;20547;-76
2023/04/19 08:30:42;;;;;;;3.85;1.30;;;;;;;;;;6309729;28;20446;-76
2023/04/19 08:33:47;;;;;;;1.60;1.50;;;;;;;;;;6310665;28;20384;-75
2023/04/19 08:36:52;;;;;;;1.00;1.00;;;;;;;;;;6310192;28;20307;-76
2023/04/19 08:40:13;;;;;;;1.08;1.08;;;;;;;;;;6292416;28;20294;-75
2023/04/19 08:43:18;;;;;;;1.10;1.10;;;;;;;;;;6309353;28;20309;-76
2023/04/19 08:46:25;;;;;;;0.98;0.90;;;;;;;;;;6310129;28;20290;-76
2023/04/19 08:49:31;;;;;;;4.40;0.80;;;;;;;;;;6309207;28;20298;-75
2023/04/19 08:52:37;;;;;;;0.93;0.93;;;;;;;;;;6309373;28;20582;-75
2023/04/19 08:56:02;;;;;;;2.00;1.10;;;;;;;;;;6309031;28;20290;-76
2023/04/19 08:59:12;;;;;;;1.08;0.95;;;;;;;;;;6309389;28;20587;-76
2023/04/19 09:02:23;;;;;;;2.70;1.10;;;;;;;;;;6309607;28;20312;-77
2023/04/19 09:05:28;;;;;;;1.70;1.38;;;;;;;;;;6308728;28;20309;-76
2023/04/19 09:08:34;;;;;;;2.50;1.05;;;;;;;;;;6291566;28;20283;-74
2023/04/19 09:11:40;;;;;;;5.80;1.10;;;;;;;;;;6309395;28;20297;-75
2023/04/19 09:14:47;;;;;;;18.17;1.52;;;;;;;;;;6308633;28;20298;-77
2023/04/19 09:18:06;;;;;;;2.10;1.00;;;;;;;;;;6309054;28;20291;-76
2023/04/19 09:21:28;;;;;;;0.90;0.90;;;;;;;;;;6309470;28;20311;-75
2023/04/19 09:24:39;;;;;;;1.00;1.00;;;;;;;;;;6307569;28;20298;-76
2023/04/19 09:27:49;;;;;;;1.85;0.90;;;;;;;;;;6290664;28;20270;-77
2023/04/19 09:30:55;;;;;;;1.67;1.00;;;;;;;;;;6309447;28;20527;-76
2023/04/19 09:34:15;;;;;;;2.75;1.20;;;;;;;;;;6308854;28;20298;-76
2023/04/19 09:37:21;;;;;;;1.02;1.02;;;;;;;;;;6308784;28;20311;-76
2023/04/19 09:40:46;;;;;;;1.23;0.80;;;;;;;;;;6308329;28;20290;-76
2023/04/19 09:43:53;;;;;;;1.48;0.82;;;;;;;;;;6308813;28;20290;-75
2023/04/19 09:47:01;;;;;;;2.00;1.15;;;;;;;;;;6308933;28;20340;-75
2023/04/19 09:50:08;;;;;;;1.10;1.02;;;;;;;;;;6290692;28;20294;-76
2023/04/19 09:53:28;;;;;;;1.20;1.10;;;;;;;;;;6308443;28;20294;-77
2023/04/19 09:56:33;;;;;;;1.77;1.10;;;;;;;;;;6309421;28;20378;-76
2023/04/19 09:59:40;;;;;;;1.27;1.20;;;;;;;;;;6308513;28;20303;-76
2023/04/19 10:02:53;;;;;;;1.55;1.00;;;;;;;;;;6296418;28;20301;-76
2023/04/19 10:05:58;;;;;;;2.33;1.17;;;;;;;;;;6334631;28;20474;-76
2023/04/19 10:09:15;;;;;;;3.90;1.10;;;;;;;;;;6334739;28;20589;-77
2023/04/19 10:12:21;;;;;;;4.88;1.45;;;;;;;;;;6334588;28;20282;-76
2023/04/19 10:15:48;;;;;;;1.50;1.10;;;;;;;;;;6316222;28;20297;-76
2023/04/19 10:18:59;;;;;;;1.50;1.17;;;;;;;;;;6337970;28;20286;-76
2023/04/19 10:22:06;;;;;;;1.52;1.05;;;;;;;;;;6338302;28;20285;-75
2023/04/19 10:25:13;;;;;;;1.13;1.13;;;;;;;;;;6337753;28;20294;-76
2023/04/19 10:28:19;;;;;;;8.20;1.42;;;;;;;;;;6337550;28;20285;-75
2023/04/19 10:31:27;;;;;;;1.95;1.20;;;;;;;;;;6338235;28;20440;-76
2023/04/19 10:34:39;;;;;;;3.30;1.02;;;;;;;;;;6327289;28;20301;-75
2023/04/19 10:38:05;;;;;;;1.25;1.25;;;;;;;;;;6337180;28;20294;-77
2023/04/19 10:41:14;;;;;;;2.03;1.20;;;;;;;;;;6338082;28;20294;-76
2023/04/19 10:44:22;;;;;;;1.05;1.05;;;;;;;;;;6337066;28;20298;-78
2023/04/19 10:51:18;;;;;;;2.65;1.13;;;;;;;;;;6376424;27;20575;-92
2023/04/19 10:54:36;;;;;;;1.00;1.00;;;;;;;;;;6365324;27;20292;-94
2023/04/19 10:58:05;;;;;;;1.90;1.02;;;;;;;;;;6330192;27;20277;-93
2023/04/19 11:01:35;;;;;;;1.20;1.00;;;;;;;;;;6344198;28;20298;-93
2023/04/19 11:05:14;;;;;;;0.80;0.80;;;;;;;;;;6340556;28;20296;-92
2023/04/19 11:08:34;;;;;;;2.42;0.70;;;;;;;;;;6338854;28;20298;-93
2023/04/19 11:11:42;;;;;;;2.58;1.05;;;;;;;;;;6342085;28;20282;-92
2023/04/19 11:14:58;;;;;;;3.40;1.10;;;;;;;;;;6339684;28;20363;-93
2023/04/19 11:18:05;;;;;;;1.00;1.00;;;;;;;;;;6339073;28;20285;-93
2023/04/19 11:21:33;;;;;;;3.45;1.00;;;;;;;;;;6335730;28;20313;-92
2023/04/19 11:24:48;;;;;;;1.10;1.10;;;;;;;;;;6339360;28;20294;-93
2023/04/19 11:31:20;;;;;;;0.80;0.80;;;;;;;;;;6341919;28;20242;-93
2023/04/19 11:38:00;;;;;;;1.00;1.00;;;;;;;;;;6344125;28;20250;-93
2023/04/19 11:41:12;;;;;;;0.90;0.90;;;;;;;;;;6344155;28;20249;-92
2023/04/19 11:44:24;;;;;;;0.93;0.90;;;;;;;;;;6340100;28;20282;-93
2023/04/19 11:47:37;;;;;;;2.83;0.80;;;;;;;;;;6342078;28;20245;-92
2023/04/19 11:50:48;;;;;;;4.32;0.93;;;;;;;;;;6343220;28;20298;-93
2023/04/19 11:53:55;;;;;;;1.63;0.95;;;;;;;;;;6334099;28;20298;-91
2023/04/19 11:57:06;;;;;;;0.73;0.73;;;;;;;;;;6376482;27;20297;-92
2023/04/19 12:00:14;;;;;;;10.50;1.48;;;;;;;;;;6356416;28;20286;-93
2023/04/19 12:03:23;;;;;;;2.15;1.00;;;;;;;;;;6343314;28;20291;-91
2023/04/19 12:06:32;;;;;;;1.02;1.00;;;;;;;;;;6346447;28;20285;-92
2023/04/19 12:09:40;;;;;;;1.15;1.10;;;;;;;;;;6348190;28;20278;-93
2023/04/19 12:12:49;;;;;;;3.10;0.90;;;;;;;;;;6349642;28;20267;-93
2023/04/19 12:15:57;;;;;;;1.70;0.85;;;;;;;;;;6351474;28;20245;-92
2023/04/19 12:19:16;;;;;;;1.17;1.02;;;;;;;;;;6352202;28;20242;-92
2023/04/19 12:22:23;;;;;;;1.25;1.25;;;;;;;;;;6351143;28;20665;-92
2023/04/19 12:25:32;;;;;;;0.90;0.90;;;;;;;;;;6346128;28;20310;-92
2023/04/19 12:28:41;;;;;;;3.83;0.93;;;;;;;;;;6344565;28;20302;-93
2023/04/19 12:31:47;;;;;;;2.72;0.90;;;;;;;;;;6346162;28;20306;-93
2023/04/19 12:34:58;;;;;;;3.97;0.95;;;;;;;;;;6347597;28;20293;-93
2023/04/19 12:38:07;;;;;;;2.33;0.90;;;;;;;;;;6344796;28;20310;-92
2023/04/19 12:41:29;;;;;;;0.82;0.82;;;;;;;;;;6347887;28;20299;-92
2023/04/19 12:44:38;;;;;;;1.00;1.00;;;;;;;;;;6351115;28;20242;-92
2023/04/19 12:47:46;;;;;;;0.85;0.85;;;;;;;;;;6349796;28;20284;-92
2023/04/19 12:50:52;;;;;;;3.22;1.25;;;;;;;;;;6348171;28;20289;-92
2023/04/19 12:54:01;;;;;;;1.98;1.05;;;;;;;;;;6341858;28;20543;-92
2023/04/19 12:57:08;;;;;;;1.88;1.20;;;;;;;;;;6343335;28;20242;-92
2023/04/19 13:00:16;;;;;;;3.03;1.05;;;;;;;;;;6340403;28;20290;-92
2023/04/19 13:03:31;;;;;;;0.90;0.90;;;;;;;;;;6341309;28;20286;-93
2023/04/19 13:06:39;;;;;;;3.92;1.10;;;;;;;;;;6342716;28;20338;-92
2023/04/19 13:09:48;;;;;;;2.08;0.93;;;;;;;;;;6344139;28;20298;-92
2023/04/19 13:12:57;;;;;;;1.35;0.90;;;;;;;;;;6327040;28;20289;-92
2023/04/19 13:16:12;;;;;;;1.60;1.00;;;;;;;;;;6343761;28;20310;-93
2023/04/19 13:19:30;;;;;;;1.10;1.10;;;;;;;;;;6347103;28;20517;-93
2023/04/19 13:22:49;;;;;;;4.28;1.10;;;;;;;;;;6343294;28;20310;-92
2023/04/19 13:25:59;;;;;;;2.83;1.02;;;;;;;;;;6345117;28;20291;-92
2023/04/19 13:29:12;;;;;;;1.33;1.33;;;;;;;;;;6344244;28;20285;-92
2023/04/19 13:32:25;;;;;;;2.67;1.20;;;;;;;;;;6345016;28;20281;-93
2023/04/19 13:35:32;;;;;;;1.65;1.55;;;;;;;;;;6343272;28;20314;-93
2023/04/19 13:38:55;;;;;;;1.70;1.10;;;;;;;;;;6343438;28;20301;-93
2023/04/19 13:42:04;;;;;;;1.17;0.90;;;;;;;;;;6326992;28;20309;-93
2023/04/19 13:45:20;;;;;;;1.20;0.95;;;;;;;;;;6325620;28;20303;-93
2023/04/19 13:48:33;;;;;;;1.55;0.90;;;;;;;;;;6349727;28;20261;-92
2023/04/19 13:51:44;;;;;;;0.90;0.90;;;;;;;;;;6351310;28;20469;-94
2023/04/19 13:54:59;;;;;;;3.20;1.30;;;;;;;;;;6348667;28;20289;-92
2023/04/19 13:58:06;;;;;;;1.25;1.17;;;;;;;;;;6350073;28;20303;-93
2023/04/19 14:01:23;;;;;;;3.10;1.05;;;;;;;;;;6351595;28;20293;-92
2023/04/19 14:04:35;;;;;;;1.10;1.10;;;;;;;;;;6353861;28;20294;-92
2023/04/19 14:07:48;;;;;;;1.00;1.00;;;;;;;;;;6350637;28;20317;-94
2023/04/19 14:11:00;;;;;;;1.10;1.00;;;;;;;;;;6336934;28;20294;-93
2023/04/19 14:21:45;;;;;;;2.00;1.00;;;;;;;;;;6349654;28;20282;-93
2023/04/19 14:24:56;;;;;;;1.98;1.00;;;;;;;;;;6327330;28;20250;-92
2023/04/19 14:39:50;;;;;;;1.33;0.93;;;;;;;;;;6350494;28;20285;-93
2023/04/19 14:43:16;;;;;;;1.10;1.10;;;;;;;;;;6323125;28;20306;-93
2023/04/19 14:46:43;;;;;;;1.23;1.15;;;;;;;;;;6358942;28;20286;-91
2023/04/19 14:49:52;;;;;;;2.25;1.00;;;;;;;;;;6353241;28;20260;-92
2023/04/19 14:52:58;;;;;;;3.45;1.25;;;;;;;;;;6348830;28;20290;-93
2023/04/19 14:56:05;;;;;;;10.63;1.40;;;;;;;;;;6349085;28;20293;-92
2023/04/19 14:59:13;;;;;;;4.85;1.20;;;;;;;;;;6344898;28;20302;-93
2023/04/19 15:02:21;;;;;;;2.65;1.10;;;;;;;;;;6349529;28;20308;-91
2023/04/19 15:05:27;;;;;;;1.10;1.10;;;;;;;;;;6345726;28;20297;-92
2023/04/19 15:08:45;;;;;;;1.27;1.10;;;;;;;;;;6347374;28;20301;-92
2023/04/19 15:11:53;;;;;;;6.38;1.30;;;;;;;;;;6355452;28;20287;-92
2023/04/19 15:15:53;;;;;;;1.00;1.00;;;;;;;;;;6340698;28;20306;-92
2023/04/19 15:23:57;;;;;;;1.42;1.30;;;;;;;;;;6370854;28;20253;-93
2023/04/19 15:27:06;;;;;;;1.00;1.00;;;;;;;;;;6342615;28;20293;-93
2023/04/19 15:30:19;;;;;;;1.02;1.02;;;;;;;;;;6349677;28;20285;-94
2023/04/19 15:33:26;;;;;;;1.52;1.42;;;;;;;;;;6348605;28;20294;-93
2023/04/19 15:36:35;;;;;;;3.45;1.20;;;;;;;;;;6350176;28;20353;-93
2023/04/19 15:39:53;;;;;;;1.35;1.25;;;;;;;;;;6364758;27;20435;-92
2023/04/19 15:43:12;;;;;;;1.25;1.15;;;;;;;;;;6380480;27;20284;-93
2023/04/19 15:46:19;;;;;;;1.02;1.02;;;;;;;;;;6381794;27;20289;-92
2023/04/19 15:49:26;;;;;;;1.00;1.00;;;;;;;;;;6376829;27;20309;-93
2023/04/19 15:52:32;;;;;;;1.77;1.20;;;;;;;;;;6377373;27;20293;-92
2023/04/19 15:55:45;;;;;;;1.00;1.00;;;;;;;;;;6377526;27;20466;-92
2023/04/19 15:59:05;;;;;;;1.80;1.02;;;;;;;;;;6363766;27;20321;-92
2023/04/19 16:02:27;;;;;;;1.10;1.10;;;;;;;;;;6371688;27;20495;-92
2023/04/19 16:05:37;;;;;;;4.35;1.10;;;;;;;;;;6377294;27;20470;-92
2023/04/19 16:08:43;;;;;;;1.40;1.30;;;;;;;;;;6380679;27;20347;-92
2023/04/19 16:11:54;;;;;;;7.03;1.25;;;;;;;;;;6377232;27;20527;-92
2023/04/19 16:15:02;;;;;;;1.58;1.30;;;;;;;;;;6377580;27;20292;-93
2023/04/19 16:18:12;;;;;;;2.33;1.20;;;;;;;;;;6375075;27;20302;-91
2023/04/19 16:21:19;;;;;;;3.83;1.10;;;;;;;;;;6377049;27;20288;-92
2023/04/19 16:24:32;;;;;;;1.67;1.10;;;;;;;;;;6379347;27;20284;-93
2023/04/19 16:27:58;;;;;;;1.38;1.30;;;;;;;;;;6382003;27;20225;-92
2023/04/19 16:34:51;;;;;;;1.98;1.10;;;;;;;;;;6369876;27;20247;-92
2023/04/19 16:38:06;;;;;;;2.67;1.20;;;;;;;;;;6383538;27;20267;-93
2023/04/19 16:44:57;;;;;;;1.40;1.30;;;;;;;;;;6380254;27;20251;-90
2023/04/19 16:48:08;;;;;;;7.97;1.15;;;;;;;;;;6383131;27;20240;-90
2023/04/19 16:51:16;;;;;;;1.98;1.10;;;;;;;;;;6365628;27;20259;-90
2023/04/19 16:54:23;;;;;;;2.60;1.30;;;;;;;;;;6383315;27;20543;-89
2023/04/19 16:57:30;;;;;;;1.30;1.30;;;;;;;;;;6384359;27;20279;-90
2023/04/19 17:00:42;;;;;;;2.15;1.13;;;;;;;;;;6377305;27;20245;-92
2023/04/19 17:03:52;;;;;;;1.17;1.15;;;;;;;;;;6362241;27;20292;-93
2023/04/19 17:07:02;;;;;;;2.28;1.10;;;;;;;;;;6380702;27;20281;-92
2023/04/19 17:10:18;;;;;;;2.13;1.20;;;;;;;;;;6372737;27;20294;-92
2023/04/19 17:13:30;;;;;;;1.30;1.30;;;;;;;;;;6358275;28;20298;-92
2023/04/19 17:16:52;;;;;;;1.40;1.00;;;;;;;;;;6352597;28;20333;-92
2023/04/19 17:20:05;;;;;;;4.88;1.30;;;;;;;;;;6355793;28;20293;-93
2023/04/19 17:23:16;;;;;;;1.13;1.00;;;;;;;;;;6355270;28;20253;-93
2023/04/19 17:26:26;;;;;;;1.75;1.00;;;;;;;;;;6353972;28;20247;-91
2023/04/19 17:29:49;;;;;;;3.40;1.05;;;;;;;;;;6354760;28;20298;-94
2023/04/19 17:33:17;;;;;;;2.40;1.63;;;;;;;;;;6366736;28;20268;-92
2023/04/19 17:36:26;;;;;;;2.22;1.17;;;;;;;;;;6355672;28;20301;-92
2023/04/19 17:43:23;;;;;;;2.25;1.40;;;;;;;;;;6356111;28;20285;-93
2023/04/19 17:46:41;;;;;;;3.53;1.23;;;;;;;;;;6357679;28;20245;-92
2023/04/19 17:50:25;;;;;;;3.45;1.60;;;;;;;;;;6364232;27;20293;-93
2023/04/19 17:54:25;;;;;;;3.60;1.60;;;;;;;;;;6385332;27;20293;-93
2023/04/19 18:01:30;;;;;;;4.95;1.10;;;;;;;;;;6392067;27;20339;-91
2023/04/19 18:08:54;;;;;;;3.60;1.20;;;;;;;;;;6381777;27;20284;-92
2023/04/19 18:12:34;;;;;;;1.00;1.00;;;;;;;;;;6368664;27;20301;-94
2023/04/19 18:16:15;;;;;;;1.23;1.10;;;;;;;;;;6350708;27;20285;-93
2023/04/19 18:23:22;;;;;;;1.00;1.00;;;;;;;;;;6369869;27;20473;-94
2023/04/19 18:26:39;;;;;;;1.58;1.08;;;;;;;;;;6365969;27;20249;-93
2023/04/19 18:30:02;;;;;;;1.33;1.33;;;;;;;;;;6379350;27;20284;-93
2023/04/19 18:33:18;;;;;;;1.20;1.20;;;;;;;;;;6375540;27;20288;-93
2023/04/19 18:40:08;;;;;;;1.75;1.00;;;;;;;;;;6395700;27;20289;-92
2023/04/19 18:43:29;;;;;;;1.40;1.00;;;;;;;;;;6380237;27;20251;-93
2023/04/19 18:46:41;;;;;;;1.20;1.20;;;;;;;;;;6383096;27;20263;-94
2023/04/19 18:49:53;;;;;;;1.38;1.10;;;;;;;;;;6369615;28;20259;-93
2023/04/19 19:00:36;;;;;;;1.30;1.30;;;;;;;;;;6387425;28;20253;-93
2023/04/19 19:03:46;;;;;;;1.52;1.40;;;;;;;;;;6373487;28;20304;-94
2023/04/19 19:07:35;;;;;;;1.13;0.90;;;;;;;;;;6377343;28;20293;-93
2023/04/19 19:10:46;;;;;;;5.25;1.58;;;;;;;;;;6376521;27;20289;-93
2023/04/19 19:14:28;;;;;;;1.02;1.02;;;;;;;;;;6381206;27;20280;-93
2023/04/19 19:17:47;;;;;;;3.85;1.20;;;;;;;;;;6385448;27;20241;-92
2023/04/19 19:21:01;;;;;;;1.30;1.30;;;;;;;;;;6389250;27;20252;-93
2023/04/19 19:24:15;;;;;;;1.05;1.00;;;;;;;;;;6375893;27;20308;-93
2023/04/19 19:27:26;;;;;;;1.30;0.90;;;;;;;;;;6388921;27;20300;-93
2023/04/19 19:30:43;;;;;;;1.50;1.10;;;;;;;;;;6353907;27;20232;-92
2023/04/19 19:34:00;;;;;;;1.10;1.10;;;;;;;;;;6389117;27;20280;-93
2023/04/19 19:37:34;;;;;;;1.00;1.00;;;;;;;;;;6387448;27;20240;-93
2023/04/19 19:41:16;;;;;;;4.68;1.17;;;;;;;;;;6377026;27;20255;-93
2023/04/19 19:44:39;;;;;;;3.60;1.35;;;;;;;;;;6386537;27;20281;-93
2023/04/19 19:51:12;;;;;;;1.10;1.10;;;;;;;;;;6389813;27;20252;-93
2023/04/19 19:54:44;;;;;;;1.85;1.15;;;;;;;;;;6386855;27;20305;-93
2023/04/19 20:02:27;;;;;;;2.33;1.10;;;;;;;;;;6383763;27;20264;-93
2023/04/19 20:09:49;;;;;;;1.52;0.80;;;;;;;;;;6378101;27;20289;-95
2023/04/19 20:13:00;;;;;;;1.00;1.00;;;;;;;;;;6348820;27;20289;-95
2023/04/19 20:19:36;;;;;;;0.90;0.90;;;;;;;;;;6353364;27;20281;-92
2023/04/19 20:22:44;;;;;;;1.02;1.02;;;;;;;;;;6352542;27;20249;-91
2023/04/19 20:25:52;;;;;;;1.20;1.20;;;;;;;;;;6385905;27;20294;-91
2023/04/19 20:28:57;;;;;;;2.35;1.88;;;;;;;;;;6350634;28;20293;-92